sensor_id;sensor_type;location;lat;lon;timestamp;pressure;altitude;pressure_sealevel;temperature;humidity
39363;BME280;25088;43.238;23.110;2023-04-02T00:01:54;95496.09;;;8.38;68.45
39363;BME280;25088;43.238;23.110;2023-04-02T00:04:22;95496.63;;;8.40;70.30
39363;BME280;25088;43.238;23.110;2023-04-02T00:07:24;95502.34;;;8.39;68.28
39363;BME280;25088;43.238;23.110;2023-04-02T00:09:56;95497.94;;;8.27;68.51
39363;BME280;25088;43.238;23.110;2023-04-02T00:12:22;95507.72;;;8.23;70.22
39363;BME280;25088;43.238;23.110;2023-04-02T00:14:50;95500.31;;;8.14;66.41
39363;BME280;25088;43.238;23.110;2023-04-02T00:17:16;95503.09;;;8.24;68.91
39363;BME280;25088;43.238;23.110;2023-04-02T00:19:51;95502.34;;;8.39;65.64
39363;BME280;25088;43.238;23.110;2023-04-02T00:22:21;95504.16;;;8.23;67.53
39363;BME280;25088;43.238;23.110;2023-04-02T00:24:50;95511.25;;;8.24;70.64
39363;BME280;25088;43.238;23.110;2023-04-02T00:27:16;95495.69;;;8.14;69.84
39363;BME280;25088;43.238;23.110;2023-04-02T00:29:51;95506.06;;;8.17;69.75
39363;BME280;25088;43.238;23.110;2023-04-02T00:32:35;95518.59;;;8.28;65.63
39363;BME280;25088;43.238;23.110;2023-04-02T00:35:01;95502.91;;;8.41;64.22
39363;BME280;25088;43.238;23.110;2023-04-02T00:37:29;95482.41;;;8.23;64.99
39363;BME280;25088;43.238;23.110;2023-04-02T00:40:18;95510.59;;;8.69;61.84
39363;BME280;25088;43.238;23.110;2023-04-02T00:42:45;95503.81;;;8.77;63.85
39363;BME280;25088;43.238;23.110;2023-04-02T00:45:23;95502.19;;;8.76;63.00
39363;BME280;25088;43.238;23.110;2023-04-02T00:47:51;95508.44;;;8.76;63.17
39363;BME280;25088;43.238;23.110;2023-04-02T00:50:28;95514.16;;;8.80;63.85
39363;BME280;25088;43.238;23.110;2023-04-02T00:52:56;95513.31;;;8.69;66.42
39363;BME280;25088;43.238;23.110;2023-04-02T00:55:31;95517.94;;;8.69;65.57
39363;BME280;25088;43.238;23.110;2023-04-02T00:58:00;95499.19;;;8.72;63.65
39363;BME280;25088;43.238;23.110;2023-04-02T01:00:32;95516.38;;;8.98;60.51
39363;BME280;25088;43.238;23.110;2023-04-02T01:05:49;95500.31;;;9.22;62.38
39363;BME280;25088;43.238;23.110;2023-04-02T01:14:19;95495.69;;;9.28;59.41
39363;BME280;25088;43.238;23.110;2023-04-02T01:22:04;95496.25;;;9.30;60.38
39363;BME280;25088;43.238;23.110;2023-04-02T01:24:33;95492.69;;;9.29;58.25
39363;BME280;25088;43.238;23.110;2023-04-02T01:27:04;95502.50;;;9.36;59.32
39363;BME280;25088;43.238;23.110;2023-04-02T01:29:46;95493.25;;;9.16;59.04
39363;BME280;25088;43.238;23.110;2023-04-02T01:32:17;95500.59;;;9.21;60.44
39363;BME280;25088;43.238;23.110;2023-04-02T01:34:49;95503.03;;;9.43;56.80
39363;BME280;25088;43.238;23.110;2023-04-02T01:45:28;95498.00;;;10.16;52.24
39363;BME280;25088;43.238;23.110;2023-04-02T01:47:54;95492.53;;;10.21;52.15
39363;BME280;25088;43.238;23.110;2023-04-02T01:50:25;95496.31;;;10.35;52.22
39363;BME280;25088;43.238;23.110;2023-04-02T01:52:58;95489.75;;;10.37;52.08
39363;BME280;25088;43.238;23.110;2023-04-02T01:55:43;95494.09;;;10.43;52.09
39363;BME280;25088;43.238;23.110;2023-04-02T01:58:10;95499.84;;;10.41;52.84
39363;BME280;25088;43.238;23.110;2023-04-02T02:01:06;95500.16;;;10.19;54.64
39363;BME280;25088;43.238;23.110;2023-04-02T02:03:31;95503.72;;;10.15;55.35
39363;BME280;25088;43.238;23.110;2023-04-02T02:05:58;95511.09;;;10.09;54.18
39363;BME280;25088;43.238;23.110;2023-04-02T02:11:14;95507.09;;;9.86;58.50
39363;BME280;25088;43.238;23.110;2023-04-02T02:13:54;95510.34;;;9.78;57.55
39363;BME280;25088;43.238;23.110;2023-04-02T02:16:21;95500.84;;;9.65;57.71
39363;BME280;25088;43.238;23.110;2023-04-02T02:18:50;95512.00;;;9.64;56.06
39363;BME280;25088;43.238;23.110;2023-04-02T02:21:26;95507.66;;;9.63;55.56
39363;BME280;25088;43.238;23.110;2023-04-02T02:23:54;95507.13;;;9.55;57.49
39363;BME280;25088;43.238;23.110;2023-04-02T02:26:21;95502.50;;;9.61;55.15
39363;BME280;25088;43.238;23.110;2023-04-02T02:28:49;95510.38;;;9.73;55.76
39363;BME280;25088;43.238;23.110;2023-04-02T02:31:23;95495.41;;;9.65;54.56
39363;BME280;25088;43.238;23.110;2023-04-02T02:33:57;95510.91;;;9.80;53.47
39363;BME280;25088;43.238;23.110;2023-04-02T02:36:41;95503.81;;;9.74;56.85
39363;BME280;25088;43.238;23.110;2023-04-02T02:39:44;95507.94;;;9.61;57.24
39363;BME280;25088;43.238;23.110;2023-04-02T02:42:17;95501.13;;;9.53;54.93
39363;BME280;25088;43.238;23.110;2023-04-02T02:44:48;95449.94;;;9.15;57.86
39363;BME280;25088;43.238;23.110;2023-04-02T02:47:18;95509.03;;;9.40;56.51
39363;BME280;25088;43.238;23.110;2023-04-02T02:49:49;95510.94;;;9.44;55.16
39363;BME280;25088;43.238;23.110;2023-04-02T02:52:24;95503.59;;;9.50;56.23
39363;BME280;25088;43.238;23.110;2023-04-02T02:54:56;95514.50;;;9.50;57.06
39363;BME280;25088;43.238;23.110;2023-04-02T02:57:29;95496.78;;;9.27;57.65
39363;BME280;25088;43.238;23.110;2023-04-02T02:59:57;95517.75;;;9.42;56.40
39363;BME280;25088;43.238;23.110;2023-04-02T03:02:26;95511.75;;;9.35;58.69
39363;BME280;25088;43.238;23.110;2023-04-02T03:04:54;95516.66;;;9.27;59.57
39363;BME280;25088;43.238;23.110;2023-04-02T03:07:22;95514.22;;;9.11;61.47
39363;BME280;25088;43.238;23.110;2023-04-02T03:10:18;95522.38;;;9.00;62.14
39363;BME280;25088;43.238;23.110;2023-04-02T03:13:26;95517.41;;;8.72;64.51
39363;BME280;25088;43.238;23.110;2023-04-02T03:21:27;95523.75;;;8.25;65.85
39363;BME280;25088;43.238;23.110;2023-04-02T03:24:02;95520.19;;;8.19;70.12
39363;BME280;25088;43.238;23.110;2023-04-02T03:26:43;95523.97;;;8.13;68.58
39363;BME280;25088;43.238;23.110;2023-04-02T03:29:17;95517.69;;;8.08;70.49
39363;BME280;25088;43.238;23.110;2023-04-02T03:31:52;95521.97;;;7.93;70.07
39363;BME280;25088;43.238;23.110;2023-04-02T03:34:35;95525.97;;;7.81;72.74
39363;BME280;25088;43.238;23.110;2023-04-02T03:37:06;95533.28;;;7.80;69.96
39363;BME280;25088;43.238;23.110;2023-04-02T03:39:39;95535.47;;;7.78;67.60
39363;BME280;25088;43.238;23.110;2023-04-02T03:42:16;95535.75;;;7.76;71.35
39363;BME280;25088;43.238;23.110;2023-04-02T03:44:55;95531.88;;;7.67;73.43
39363;BME280;25088;43.238;23.110;2023-04-02T03:47:33;95537.25;;;7.57;71.93
39363;BME280;25088;43.238;23.110;2023-04-02T03:50:06;95536.94;;;7.54;73.82
39363;BME280;25088;43.238;23.110;2023-04-02T03:52:35;95545.59;;;7.50;76.26
39363;BME280;25088;43.238;23.110;2023-04-02T03:55:10;95543.94;;;7.44;73.37
39363;BME280;25088;43.238;23.110;2023-04-02T03:57:51;95509.06;;;7.26;72.25
39363;BME280;25088;43.238;23.110;2023-04-02T04:03:26;95534.34;;;7.32;76.18
39363;BME280;25088;43.238;23.110;2023-04-02T04:06:00;95541.66;;;7.31;75.55
39363;BME280;25088;43.238;23.110;2023-04-02T04:08:52;95545.72;;;7.29;77.26
39363;BME280;25088;43.238;23.110;2023-04-02T04:11:24;95539.22;;;7.35;75.31
39363;BME280;25088;43.238;23.110;2023-04-02T04:22:23;95555.72;;;6.96;76.15
39363;BME280;25088;43.238;23.110;2023-04-02T04:24:58;95565.09;;;7.10;75.24
39363;BME280;25088;43.238;23.110;2023-04-02T04:27:37;95572.41;;;7.10;77.36
39363;BME280;25088;43.238;23.110;2023-04-02T04:32:49;95574.41;;;7.19;75.81
39363;BME280;25088;43.238;23.110;2023-04-02T04:35:30;95574.53;;;7.03;77.90
39363;BME280;25088;43.238;23.110;2023-04-02T04:38:03;95584.41;;;6.87;79.51
39363;BME280;25088;43.238;23.110;2023-04-02T04:40:36;95595.50;;;6.85;80.22
39363;BME280;25088;43.238;23.110;2023-04-02T04:43:12;95596.63;;;6.89;79.79
39363;BME280;25088;43.238;23.110;2023-04-02T04:45:44;95598.56;;;6.94;80.16
39363;BME280;25088;43.238;23.110;2023-04-02T04:48:17;95600.22;;;6.95;79.53
39363;BME280;25088;43.238;23.110;2023-04-02T04:53:16;95602.41;;;7.25;77.77
39363;BME280;25088;43.238;23.110;2023-04-02T04:55:46;95581.78;;;7.24;78.05
39363;BME280;25088;43.238;23.110;2023-04-02T04:58:34;95602.38;;;7.52;77.03
39363;BME280;25088;43.238;23.110;2023-04-02T05:01:06;95602.78;;;7.66;75.23
39363;BME280;25088;43.238;23.110;2023-04-02T05:03:46;95605.09;;;7.89;75.08
39363;BME280;25088;43.238;23.110;2023-04-02T05:06:30;95613.09;;;8.01;74.66
39363;BME280;25088;43.238;23.110;2023-04-02T05:09:03;95611.81;;;8.19;73.84
39363;BME280;25088;43.238;23.110;2023-04-02T05:11:44;95603.00;;;8.44;74.39
39363;BME280;25088;43.238;23.110;2023-04-02T05:14:20;95604.47;;;8.62;72.27
39363;BME280;25088;43.238;23.110;2023-04-02T05:16:52;95606.16;;;8.83;70.16
39363;BME280;25088;43.238;23.110;2023-04-02T05:19:36;95609.25;;;9.17;70.12
39363;BME280;25088;43.238;23.110;2023-04-02T05:27:25;95617.19;;;10.16;65.29
39363;BME280;25088;43.238;23.110;2023-04-02T05:33:25;95608.47;;;10.99;61.99
39363;BME280;25088;43.238;23.110;2023-04-02T05:35:58;95593.16;;;11.03;59.92
39363;BME280;25088;43.238;23.110;2023-04-02T05:38:28;95601.94;;;11.44;58.57
39363;BME280;25088;43.238;23.110;2023-04-02T05:41:27;95601.06;;;11.88;56.64
39363;BME280;25088;43.238;23.110;2023-04-02T05:44:07;95599.75;;;12.44;55.73
39363;BME280;25088;43.238;23.110;2023-04-02T05:46:56;95601.56;;;12.96;54.00
39363;BME280;25088;43.238;23.110;2023-04-02T05:49:30;95595.50;;;13.23;52.41
39363;BME280;25088;43.238;23.110;2023-04-02T05:51:59;95603.50;;;13.57;50.98
39363;BME280;25088;43.238;23.110;2023-04-02T05:54:47;95603.19;;;14.10;49.85
39363;BME280;25088;43.238;23.110;2023-04-02T05:57:20;95589.63;;;14.46;49.24
39363;BME280;25088;43.238;23.110;2023-04-02T05:59:52;95591.03;;;14.90;48.33
39363;BME280;25088;43.238;23.110;2023-04-02T06:07:33;95585.31;;;16.09;44.43
39363;BME280;25088;43.238;23.110;2023-04-02T06:10:19;95585.13;;;16.59;43.17
39363;BME280;25088;43.238;23.110;2023-04-02T06:13:07;95583.84;;;16.96;42.61
39363;BME280;25088;43.238;23.110;2023-04-02T06:15:34;95586.72;;;17.48;41.85
39363;BME280;25088;43.238;23.110;2023-04-02T06:20:44;95583.50;;;17.98;39.70
39363;BME280;25088;43.238;23.110;2023-04-02T06:26:02;95573.22;;;18.25;38.38
39363;BME280;25088;43.238;23.110;2023-04-02T06:28:44;95585.72;;;18.48;38.61
39363;BME280;25088;43.238;23.110;2023-04-02T06:34:28;95577.59;;;19.28;36.25
39363;BME280;25088;43.238;23.110;2023-04-02T06:36:57;95577.66;;;19.49;36.76
39363;BME280;25088;43.238;23.110;2023-04-02T06:39:24;95573.63;;;19.68;37.26
39363;BME280;25088;43.238;23.110;2023-04-02T06:44:23;95581.66;;;19.81;35.58
39363;BME280;25088;43.238;23.110;2023-04-02T06:47:00;95580.91;;;20.14;34.66
39363;BME280;25088;43.238;23.110;2023-04-02T06:49:37;95578.69;;;20.40;33.71
39363;BME280;25088;43.238;23.110;2023-04-02T06:52:14;95576.56;;;20.25;32.81
39363;BME280;25088;43.238;23.110;2023-04-02T06:54:42;95583.53;;;20.77;33.79
39363;BME280;25088;43.238;23.110;2023-04-02T06:57:08;95588.22;;;21.09;33.02
39363;BME280;25088;43.238;23.110;2023-04-02T06:59:34;95584.63;;;21.21;31.65
39363;BME280;25088;43.238;23.110;2023-04-02T07:02:25;95580.69;;;21.47;30.82
39363;BME280;25088;43.238;23.110;2023-04-02T07:04:48;95592.28;;;22.01;30.64
39363;BME280;25088;43.238;23.110;2023-04-02T07:07:13;95593.56;;;21.39;31.50
39363;BME280;25088;43.238;23.110;2023-04-02T07:09:39;95598.38;;;21.66;30.02
39363;BME280;25088;43.238;23.110;2023-04-02T07:12:11;95604.78;;;21.30;31.12
39363;BME280;25088;43.238;23.110;2023-04-02T07:14:37;95611.69;;;21.24;30.83
39363;BME280;25088;43.238;23.110;2023-04-02T07:17:02;95613.38;;;20.92;29.79
39363;BME280;25088;43.238;23.110;2023-04-02T07:19:27;95617.00;;;20.59;29.89
39363;BME280;25088;43.238;23.110;2023-04-02T07:21:53;95624.59;;;20.50;29.47
39363;BME280;25088;43.238;23.110;2023-04-02T07:24:18;95607.47;;;20.15;30.57
39363;BME280;25088;43.238;23.110;2023-04-02T07:26:44;95614.09;;;19.81;31.32
39363;BME280;25088;43.238;23.110;2023-04-02T07:29:15;95619.97;;;19.79;31.15
39363;BME280;25088;43.238;23.110;2023-04-02T07:31:41;95617.13;;;19.58;30.96
39363;BME280;25088;43.238;23.110;2023-04-02T07:34:08;95610.38;;;19.77;30.69
39363;BME280;25088;43.238;23.110;2023-04-02T07:36:34;95618.00;;;20.01;30.80
39363;BME280;25088;43.238;23.110;2023-04-02T07:39:00;95607.03;;;20.25;29.70
39363;BME280;25088;43.238;23.110;2023-04-02T07:41:26;95614.34;;;20.30;30.71
39363;BME280;25088;43.238;23.110;2023-04-02T07:43:52;95628.22;;;19.29;31.21
39363;BME280;25088;43.238;23.110;2023-04-02T07:46:17;95629.41;;;18.81;31.96
39363;BME280;25088;43.238;23.110;2023-04-02T07:48:44;95629.28;;;18.43;32.67
39363;BME280;25088;43.238;23.110;2023-04-02T07:51:22;95626.88;;;18.24;33.64
39363;BME280;25088;43.238;23.110;2023-04-02T07:53:48;95639.75;;;18.11;35.49
39363;BME280;25088;43.238;23.110;2023-04-02T07:56:16;95618.44;;;17.94;34.17
39363;BME280;25088;43.238;23.110;2023-04-02T07:58:42;95633.72;;;17.83;33.51
39363;BME280;25088;43.238;23.110;2023-04-02T08:01:15;95637.78;;;18.03;33.67
39363;BME280;25088;43.238;23.110;2023-04-02T08:03:41;95637.59;;;19.07;33.33
39363;BME280;25088;43.238;23.110;2023-04-02T08:06:07;95631.91;;;20.55;31.16
39363;BME280;25088;43.238;23.110;2023-04-02T08:08:32;95626.31;;;20.01;30.40
39363;BME280;25088;43.238;23.110;2023-04-02T08:10:57;95639.28;;;19.29;31.82
39363;BME280;25088;43.238;23.110;2023-04-02T08:13:23;95618.84;;;18.74;32.70
39363;BME280;25088;43.238;23.110;2023-04-02T08:15:48;95637.28;;;17.92;33.55
39363;BME280;25088;43.238;23.110;2023-04-02T08:18:14;95651.31;;;16.99;34.49
39363;BME280;25088;43.238;23.110;2023-04-02T08:20:39;95656.72;;;16.73;34.25
39363;BME280;25088;43.238;23.110;2023-04-02T08:23:12;95656.31;;;16.88;34.39
39363;BME280;25088;43.238;23.110;2023-04-02T08:25:39;95649.88;;;17.01;34.35
39363;BME280;25088;43.238;23.110;2023-04-02T08:28:05;95645.09;;;17.99;33.02
39363;BME280;25088;43.238;23.110;2023-04-02T08:30:30;95649.81;;;18.07;32.62
39363;BME280;25088;43.238;23.110;2023-04-02T08:32:56;95653.69;;;17.97;32.54
39363;BME280;25088;43.238;23.110;2023-04-02T08:35:21;95658.44;;;18.05;32.70
39363;BME280;25088;43.238;23.110;2023-04-02T08:37:47;95662.97;;;18.36;31.82
39363;BME280;25088;43.238;23.110;2023-04-02T08:40:24;95665.38;;;18.46;32.81
39363;BME280;25088;43.238;23.110;2023-04-02T08:43:12;95660.50;;;18.52;32.65
39363;BME280;25088;43.238;23.110;2023-04-02T08:48:20;95641.13;;;22.02;27.87
39363;BME280;25088;43.238;23.110;2023-04-02T08:50:48;95626.97;;;23.35;27.34
39363;BME280;25088;43.238;23.110;2023-04-02T08:53:17;95644.03;;;24.52;25.82
39363;BME280;25088;43.238;23.110;2023-04-02T08:58:55;95640.56;;;25.20;24.61
39363;BME280;25088;43.238;23.110;2023-04-02T09:04:15;95633.44;;;24.61;24.98
39363;BME280;25088;43.238;23.110;2023-04-02T09:06:44;95638.81;;;24.50;24.86
39363;BME280;25088;43.238;23.110;2023-04-02T09:09:14;95650.06;;;24.96;24.61
39363;BME280;25088;43.238;23.110;2023-04-02T09:14:40;95662.91;;;23.40;26.78
39363;BME280;25088;43.238;23.110;2023-04-02T09:17:18;95661.03;;;22.29;27.16
39363;BME280;25088;43.238;23.110;2023-04-02T09:19:57;95658.13;;;20.57;27.76
39363;BME280;25088;43.238;23.110;2023-04-02T09:22:27;95666.22;;;20.62;28.36
39363;BME280;25088;43.238;23.110;2023-04-02T09:24:58;95669.34;;;19.77;29.68
39363;BME280;25088;43.238;23.110;2023-04-02T09:27:28;95674.81;;;19.56;29.97
39363;BME280;25088;43.238;23.110;2023-04-02T09:30:09;95676.72;;;19.35;30.00
39363;BME280;25088;43.238;23.110;2023-04-02T09:32:49;95687.16;;;18.56;31.26
39363;BME280;25088;43.238;23.110;2023-04-02T09:35:18;95683.00;;;19.06;31.29
39363;BME280;25088;43.238;23.110;2023-04-02T09:37:44;95679.66;;;19.30;31.27
39363;BME280;25088;43.238;23.110;2023-04-02T09:40:25;95683.28;;;19.22;30.30
39363;BME280;25088;43.238;23.110;2023-04-02T09:43:15;95662.09;;;19.26;30.60
39363;BME280;25088;43.238;23.110;2023-04-02T09:45:42;95672.69;;;19.53;31.15
39363;BME280;25088;43.238;23.110;2023-04-02T09:48:36;95673.75;;;20.62;29.74
39363;BME280;25088;43.238;23.110;2023-04-02T09:53:42;95673.47;;;20.13;29.50
39363;BME280;25088;43.238;23.110;2023-04-02T09:56:15;95676.94;;;19.59;30.43
39363;BME280;25088;43.238;23.110;2023-04-02T09:58:43;95665.09;;;20.01;28.58
39363;BME280;25088;43.238;23.110;2023-04-02T10:01:25;95670.50;;;19.38;30.62
39363;BME280;25088;43.238;23.110;2023-04-02T10:03:53;95677.41;;;18.76;30.80
39363;BME280;25088;43.238;23.110;2023-04-02T10:06:19;95682.94;;;18.50;30.90
39363;BME280;25088;43.238;23.110;2023-04-02T10:08:45;95675.47;;;18.51;31.50
39363;BME280;25088;43.238;23.110;2023-04-02T10:11:13;95676.13;;;18.13;32.52
39363;BME280;25088;43.238;23.110;2023-04-02T10:13:57;95673.34;;;18.04;32.88
39363;BME280;25088;43.238;23.110;2023-04-02T10:16:28;95676.09;;;17.87;33.55
39363;BME280;25088;43.238;23.110;2023-04-02T10:19:27;95670.25;;;17.89;33.41
39363;BME280;25088;43.238;23.110;2023-04-02T10:21:57;95672.53;;;17.78;33.88
39363;BME280;25088;43.238;23.110;2023-04-02T10:24:27;95674.00;;;18.19;32.88
39363;BME280;25088;43.238;23.110;2023-04-02T10:38:13;95657.09;;;19.49;32.39
39363;BME280;25088;43.238;23.110;2023-04-02T10:40:48;95670.28;;;19.14;33.07
39363;BME280;25088;43.238;23.110;2023-04-02T10:43:39;95653.09;;;21.29;31.30
39363;BME280;25088;43.238;23.110;2023-04-02T10:51:54;95648.84;;;20.86;31.22
39363;BME280;25088;43.238;23.110;2023-04-02T10:54:45;95658.34;;;20.98;30.71
39363;BME280;25088;43.238;23.110;2023-04-02T10:57:40;95650.16;;;20.56;31.02
39363;BME280;25088;43.238;23.110;2023-04-02T11:00:17;95650.34;;;19.88;31.24
39363;BME280;25088;43.238;23.110;2023-04-02T11:03:15;95653.75;;;20.56;30.75
39363;BME280;25088;43.238;23.110;2023-04-02T11:05:54;95656.97;;;20.58;30.75
39363;BME280;25088;43.238;23.110;2023-04-02T11:13:54;95658.81;;;19.92;31.02
39363;BME280;25088;43.238;23.110;2023-04-02T11:16:22;95645.50;;;19.55;31.52
39363;BME280;25088;43.238;23.110;2023-04-02T11:24:36;95660.50;;;20.26;29.40
39363;BME280;25088;43.238;23.110;2023-04-02T11:29:43;95655.28;;;21.97;28.13
39363;BME280;25088;43.238;23.110;2023-04-02T11:32:33;95642.31;;;23.61;26.94
39363;BME280;25088;43.238;23.110;2023-04-02T11:37:45;95648.38;;;23.79;25.92
39363;BME280;25088;43.238;23.110;2023-04-02T11:42:44;95647.59;;;20.84;27.86
39363;BME280;25088;43.238;23.110;2023-04-02T11:50:35;95642.38;;;21.64;27.33
39363;BME280;25088;43.238;23.110;2023-04-02T11:55:46;95637.44;;;21.00;27.70
39363;BME280;25088;43.238;23.110;2023-04-02T12:09:54;95631.13;;;21.61;27.01
39363;BME280;25088;43.238;23.110;2023-04-02T12:14:52;95625.69;;;21.64;28.54
39363;BME280;25088;43.238;23.110;2023-04-02T12:17:28;95624.41;;;21.74;28.11
39363;BME280;25088;43.238;23.110;2023-04-02T12:22:46;95619.28;;;22.13;28.10
39363;BME280;25088;43.238;23.110;2023-04-02T12:27:47;95578.06;;;22.59;27.06
39363;BME280;25088;43.238;23.110;2023-04-02T12:30:18;95611.25;;;22.95;26.50
39363;BME280;25088;43.238;23.110;2023-04-02T12:32:44;95623.03;;;23.20;26.21
39363;BME280;25088;43.238;23.110;2023-04-02T12:35:32;95613.53;;;24.23;25.35
39363;BME280;25088;43.238;23.110;2023-04-02T12:37:58;95617.81;;;24.37;25.32
39363;BME280;25088;43.238;23.110;2023-04-02T12:40:26;95613.34;;;24.52;24.17
39363;BME280;25088;43.238;23.110;2023-04-02T12:42:52;95607.22;;;24.46;24.84
39363;BME280;25088;43.238;23.110;2023-04-02T12:45:23;95602.75;;;25.26;24.08
39363;BME280;25088;43.238;23.110;2023-04-02T12:47:48;95600.00;;;26.62;22.72
39363;BME280;25088;43.238;23.110;2023-04-02T12:50:15;95585.25;;;27.47;21.31
39363;BME280;25088;43.238;23.110;2023-04-02T12:52:45;95594.78;;;27.35;21.82
39363;BME280;25088;43.238;23.110;2023-04-02T12:55:23;95596.16;;;26.77;22.00
39363;BME280;25088;43.238;23.110;2023-04-02T12:57:58;95595.03;;;26.48;22.09
39363;BME280;25088;43.238;23.110;2023-04-02T13:02:51;95592.31;;;26.25;22.64
39363;BME280;25088;43.238;23.110;2023-04-02T13:05:51;95592.75;;;25.97;22.68
39363;BME280;25088;43.238;23.110;2023-04-02T13:08:21;95594.22;;;24.15;24.46
39363;BME280;25088;43.238;23.110;2023-04-02T13:10:52;95609.63;;;23.42;25.17
39363;BME280;25088;43.238;23.110;2023-04-02T13:13:25;95606.22;;;22.57;26.52
39363;BME280;25088;43.238;23.110;2023-04-02T13:16:42;95611.50;;;22.18;27.31
39363;BME280;25088;43.238;23.110;2023-04-02T13:21:41;95611.25;;;20.64;28.71
39363;BME280;25088;43.238;23.110;2023-04-02T13:24:18;95616.63;;;20.49;29.02
39363;BME280;25088;43.238;23.110;2023-04-02T13:26:44;95617.13;;;19.88;29.16
39363;BME280;25088;43.238;23.110;2023-04-02T13:29:33;95621.59;;;19.80;30.02
39363;BME280;25088;43.238;23.110;2023-04-02T13:32:05;95616.75;;;19.69;29.60
39363;BME280;25088;43.238;23.110;2023-04-02T13:34:31;95602.06;;;19.18;30.39
39363;BME280;25088;43.238;23.110;2023-04-02T13:36:56;95613.28;;;19.21;31.15
39363;BME280;25088;43.238;23.110;2023-04-02T13:39:23;95618.09;;;19.33;30.15
39363;BME280;25088;43.238;23.110;2023-04-02T13:42:00;95612.28;;;20.60;29.39
39363;BME280;25088;43.238;23.110;2023-04-02T13:44:29;95601.13;;;22.59;27.10
39363;BME280;25088;43.238;23.110;2023-04-02T13:46:55;95602.03;;;23.90;25.90
39363;BME280;25088;43.238;23.110;2023-04-02T13:49:22;95597.41;;;24.52;24.86
39363;BME280;25088;43.238;23.110;2023-04-02T13:51:53;95593.19;;;25.04;23.88
39363;BME280;25088;43.238;23.110;2023-04-02T13:54:29;95591.72;;;24.10;24.59
39363;BME280;25088;43.238;23.110;2023-04-02T13:56:58;95603.91;;;22.59;26.05
39363;BME280;25088;43.238;23.110;2023-04-02T13:59:27;95597.00;;;21.60;27.11
39363;BME280;25088;43.238;23.110;2023-04-02T14:01:56;95595.78;;;20.88;28.64
39363;BME280;25088;43.238;23.110;2023-04-02T14:04:29;95609.97;;;19.87;29.52
39363;BME280;25088;43.238;23.110;2023-04-02T14:07:17;95616.72;;;19.77;29.86
39363;BME280;25088;43.238;23.110;2023-04-02T14:10:01;95613.78;;;20.36;29.76
39363;BME280;25088;43.238;23.110;2023-04-02T14:15:27;95607.28;;;20.32;28.87
39363;BME280;25088;43.238;23.110;2023-04-02T14:20:58;95619.41;;;19.35;31.00
39363;BME280;25088;43.238;23.110;2023-04-02T14:31:39;95608.56;;;19.22;31.48
39363;BME280;25088;43.238;23.110;2023-04-02T14:42:59;95589.84;;;21.59;28.74
39363;BME280;25088;43.238;23.110;2023-04-02T14:50:50;95584.22;;;21.84;27.83
39363;BME280;25088;43.238;23.110;2023-04-02T14:53:22;95582.19;;;22.09;28.26
39363;BME280;25088;43.238;23.110;2023-04-02T14:55:51;95572.88;;;22.29;28.12
39363;BME280;25088;43.238;23.110;2023-04-02T14:58:32;95597.16;;;22.32;26.98
39363;BME280;25088;43.238;23.110;2023-04-02T15:01:20;95595.28;;;22.08;27.48
39363;BME280;25088;43.238;23.110;2023-04-02T15:03:56;95602.03;;;21.95;27.09
39363;BME280;25088;43.238;23.110;2023-04-02T15:06:32;95611.03;;;22.16;26.79
39363;BME280;25088;43.238;23.110;2023-04-02T15:09:06;95606.81;;;22.23;26.86
39363;BME280;25088;43.238;23.110;2023-04-02T15:11:37;95610.31;;;22.07;26.57
39363;BME280;25088;43.238;23.110;2023-04-02T15:14:14;95604.13;;;21.98;26.83
39363;BME280;25088;43.238;23.110;2023-04-02T15:16:42;95620.47;;;21.75;28.50
39363;BME280;25088;43.238;23.110;2023-04-02T15:19:13;95615.59;;;21.72;28.52
39363;BME280;25088;43.238;23.110;2023-04-02T15:42:59;95640.53;;;20.53;31.41
39363;BME280;25088;43.238;23.110;2023-04-02T15:48:56;95642.78;;;19.76;32.89
39363;BME280;25088;43.238;23.110;2023-04-02T15:51:23;95649.44;;;19.16;33.50
39363;BME280;25088;43.238;23.110;2023-04-02T15:54:05;95654.47;;;18.76;34.64
39363;BME280;25088;43.238;23.110;2023-04-02T16:02:50;95664.75;;;17.97;36.06
39363;BME280;25088;43.238;23.110;2023-04-02T16:05:31;95663.75;;;17.85;36.72
39363;BME280;25088;43.238;23.110;2023-04-02T16:10:41;95647.25;;;17.36;37.34
39363;BME280;25088;43.238;23.110;2023-04-02T16:13:24;95672.09;;;17.36;37.50
39363;BME280;25088;43.238;23.110;2023-04-02T16:16:02;95669.91;;;17.16;38.25
39363;BME280;25088;43.238;23.110;2023-04-02T16:21:35;95684.75;;;16.75;38.69
39363;BME280;25088;43.238;23.110;2023-04-02T16:24:11;95683.88;;;16.66;41.47
39363;BME280;25088;43.238;23.110;2023-04-02T16:27:39;95690.66;;;16.60;41.72
39363;BME280;25088;43.238;23.110;2023-04-02T16:35:27;95692.72;;;16.09;43.65
39363;BME280;25088;43.238;23.110;2023-04-02T16:38:21;95700.31;;;15.90;44.70
39363;BME280;25088;43.238;23.110;2023-04-02T16:43:41;95699.63;;;15.70;45.97
39363;BME280;25088;43.238;23.110;2023-04-02T16:49:00;95709.41;;;15.49;47.34
39363;BME280;25088;43.238;23.110;2023-04-02T16:54:23;95717.38;;;15.37;47.77
39363;BME280;25088;43.238;23.110;2023-04-02T17:07:50;95728.16;;;14.92;50.43
39363;BME280;25088;43.238;23.110;2023-04-02T17:10:31;95737.16;;;14.79;47.58
39363;BME280;25088;43.238;23.110;2023-04-02T17:15:44;95743.34;;;14.70;48.38
39363;BME280;25088;43.238;23.110;2023-04-02T17:18:21;95746.91;;;14.71;48.55
39363;BME280;25088;43.238;23.110;2023-04-02T17:20:49;95758.06;;;14.61;48.71
39363;BME280;25088;43.238;23.110;2023-04-02T17:23:16;95758.53;;;14.49;49.13
39363;BME280;25088;43.238;23.110;2023-04-02T17:25:55;95764.09;;;14.44;50.23
39363;BME280;25088;43.238;23.110;2023-04-02T17:28:26;95761.41;;;14.39;51.38
39363;BME280;25088;43.238;23.110;2023-04-02T17:30:57;95762.78;;;14.22;54.03
39363;BME280;25088;43.238;23.110;2023-04-02T17:33:24;95756.75;;;14.02;54.18